首页
METAR-TAF:

METAR-TAF

机场 :

路易斯·穆尼奥斯·马林国际机场

圣胡安, 波多黎哥, 美国

纬度: 18-27N, 经度: 066-00W, 海拔: 3米

当前天气观测

该预报发布于16分钟前的10:56 UTC
风速3节,风向
温度 25°C
湿度 94%
气压 1015 hPa
能見度: 16.1公里
少量云层高于2300英尺
散云层高于2900英尺
散云层高于4000英尺

METAR: TJSJ 151056Z 17003KT 10SM FEW023 SCT029 SCT040 25/24 A2996 RMK AO2 RAB10E19 SLP144 VCSH E S W P0000 T02500239

时间: 07:12 (11:12 UTC)

预报

该预报发布于5小时和43分钟前的05:29 UTC
预报有效从15日的 06点(UTC)到 16日的 06点(UTC)
风速4节,风向多变
能見度: 10公里
散云层高于3000英尺
附近有阵雨
从 15日的 1400点(UTC)
风速12节,风向东转东北
能見度: 10公里
少量云层高于2500英尺
散云层高于3500英尺
从 15日的 2200点(UTC)
风速8节,风向东转东北
能見度: 10公里
散云层高于3000英尺

TAF: TJSJ 150529Z 1506/1606 VRB04KT P6SM VCSH SCT030 FM151400 06012KT P6SM FEW025 SCT035 FM152200 07008KT P6SM SCT030

超过4000个机场的气象观测和天气预报(METAR&TAF报告)。

可查询的气象台以黄色和红色小点在地图上表示。

将鼠标移到小点上方,可查看气象台名称。

然后点击查看天气观测和预报。

如需切换地图:点击带黑十字的绿色按钮放大地图;点击带横线的绿色按钮缩小地图;或者点击绿色箭头查看邻近地区的地图。


METAR-TAF: